sensor_id;sensor_type;location;lat;lon;timestamp;temperature;humidity
35894;DHT22;21994;48.204;16.516;2023-05-10T00:00:54;11.50;99.10
35894;DHT22;21994;48.204;16.516;2023-05-10T00:03:20;11.50;99.00
35894;DHT22;21994;48.204;16.516;2023-05-10T00:05:46;11.60;99.10
35894;DHT22;21994;48.204;16.516;2023-05-10T00:08:12;11.50;99.20
35894;DHT22;21994;48.204;16.516;2023-05-10T00:10:38;11.60;99.30
35894;DHT22;21994;48.204;16.516;2023-05-10T00:13:03;11.60;99.40
35894;DHT22;21994;48.204;16.516;2023-05-10T00:15:29;11.60;99.50
35894;DHT22;21994;48.204;16.516;2023-05-10T00:18:00;11.50;99.60
35894;DHT22;21994;48.204;16.516;2023-05-10T00:20:26;11.50;99.90
35894;DHT22;21994;48.204;16.516;2023-05-10T00:22:52;11.40;99.90
35894;DHT22;21994;48.204;16.516;2023-05-10T00:25:18;11.40;99.90
35894;DHT22;21994;48.204;16.516;2023-05-10T00:27:44;11.40;99.90
35894;DHT22;21994;48.204;16.516;2023-05-10T00:30:10;11.30;99.90
35894;DHT22;21994;48.204;16.516;2023-05-10T00:32:36;11.30;99.90
35894;DHT22;21994;48.204;16.516;2023-05-10T00:35:02;11.30;99.90
35894;DHT22;21994;48.204;16.516;2023-05-10T00:37:28;11.30;99.90
35894;DHT22;21994;48.204;16.516;2023-05-10T00:39:54;11.30;99.90
35894;DHT22;21994;48.204;16.516;2023-05-10T00:42:20;11.30;99.90
35894;DHT22;21994;48.204;16.516;2023-05-10T00:44:45;11.20;99.90
35894;DHT22;21994;48.204;16.516;2023-05-10T00:47:12;11.20;99.90
35894;DHT22;21994;48.204;16.516;2023-05-10T00:49:38;11.20;99.90
35894;DHT22;21994;48.204;16.516;2023-05-10T00:52:04;11.20;99.90
35894;DHT22;21994;48.204;16.516;2023-05-10T00:54:30;11.20;99.90
35894;DHT22;21994;48.204;16.516;2023-05-10T00:56:56;11.20;99.90
35894;DHT22;21994;48.204;16.516;2023-05-10T00:59:22;11.20;99.90
35894;DHT22;21994;48.204;16.516;2023-05-10T01:01:49;11.20;99.90
35894;DHT22;21994;48.204;16.516;2023-05-10T01:04:15;11.20;99.90
35894;DHT22;21994;48.204;16.516;2023-05-10T01:06:41;11.20;99.90
35894;DHT22;21994;48.204;16.516;2023-05-10T01:09:07;11.10;99.90
35894;DHT22;21994;48.204;16.516;2023-05-10T01:11:35;11.20;99.90
35894;DHT22;21994;48.204;16.516;2023-05-10T01:14:02;11.10;99.90
35894;DHT22;21994;48.204;16.516;2023-05-10T01:16:32;11.10;99.90
35894;DHT22;21994;48.204;16.516;2023-05-10T01:19:01;11.10;99.90
35894;DHT22;21994;48.204;16.516;2023-05-10T01:21:43;11.00;99.90
35894;DHT22;21994;48.204;16.516;2023-05-10T01:31:03;10.90;99.90
35894;DHT22;21994;48.204;16.516;2023-05-10T01:37:07;10.80;99.90
35894;DHT22;21994;48.204;16.516;2023-05-10T01:42:46;10.70;99.90
35894;DHT22;21994;48.204;16.516;2023-05-10T01:45:37;10.60;99.90
35894;DHT22;21994;48.204;16.516;2023-05-10T01:48:09;10.60;99.90
35894;DHT22;21994;48.204;16.516;2023-05-10T01:50:39;10.50;99.90
35894;DHT22;21994;48.204;16.516;2023-05-10T01:53:10;10.50;99.90
35894;DHT22;21994;48.204;16.516;2023-05-10T01:55:46;10.50;99.90
35894;DHT22;21994;48.204;16.516;2023-05-10T01:58:19;10.50;99.90
35894;DHT22;21994;48.204;16.516;2023-05-10T02:00:48;10.50;99.90
35894;DHT22;21994;48.204;16.516;2023-05-10T02:03:16;10.50;99.90
35894;DHT22;21994;48.204;16.516;2023-05-10T02:05:44;10.40;99.90
35894;DHT22;21994;48.204;16.516;2023-05-10T02:08:13;10.40;99.90
35894;DHT22;21994;48.204;16.516;2023-05-10T02:10:41;10.40;99.90
35894;DHT22;21994;48.204;16.516;2023-05-10T02:13:10;10.40;99.90
35894;DHT22;21994;48.204;16.516;2023-05-10T02:15:37;10.40;99.90
35894;DHT22;21994;48.204;16.516;2023-05-10T02:18:05;10.40;99.90
35894;DHT22;21994;48.204;16.516;2023-05-10T02:20:32;10.40;99.90
35894;DHT22;21994;48.204;16.516;2023-05-10T02:22:59;10.40;99.90
35894;DHT22;21994;48.204;16.516;2023-05-10T02:25:27;10.30;99.90
35894;DHT22;21994;48.204;16.516;2023-05-10T02:27:56;10.30;99.90
35894;DHT22;21994;48.204;16.516;2023-05-10T02:30:23;10.20;99.90
35894;DHT22;21994;48.204;16.516;2023-05-10T02:32:51;10.20;99.90
35894;DHT22;21994;48.204;16.516;2023-05-10T02:35:18;10.20;99.90
35894;DHT22;21994;48.204;16.516;2023-05-10T02:37:46;10.20;99.90
35894;DHT22;21994;48.204;16.516;2023-05-10T02:40:13;10.10;99.90
35894;DHT22;21994;48.204;16.516;2023-05-10T02:42:42;10.10;99.90
35894;DHT22;21994;48.204;16.516;2023-05-10T02:45:14;10.00;99.90
35894;DHT22;21994;48.204;16.516;2023-05-10T02:47:46;10.00;99.90
35894;DHT22;21994;48.204;16.516;2023-05-10T02:50:13;9.90;99.90
35894;DHT22;21994;48.204;16.516;2023-05-10T02:52:52;9.80;99.90
35894;DHT22;21994;48.204;16.516;2023-05-10T02:55:21;9.80;99.90
35894;DHT22;21994;48.204;16.516;2023-05-10T02:57:52;9.70;99.90
35894;DHT22;21994;48.204;16.516;2023-05-10T03:00:22;9.70;99.90
35894;DHT22;21994;48.204;16.516;2023-05-10T03:02:50;9.60;99.90
35894;DHT22;21994;48.204;16.516;2023-05-10T03:05:16;9.60;99.90
35894;DHT22;21994;48.204;16.516;2023-05-10T03:07:42;9.50;99.90
35894;DHT22;21994;48.204;16.516;2023-05-10T03:10:09;9.40;99.90
35894;DHT22;21994;48.204;16.516;2023-05-10T03:15:25;9.40;99.90
35894;DHT22;21994;48.204;16.516;2023-05-10T03:18:22;9.40;99.90
35894;DHT22;21994;48.204;16.516;2023-05-10T03:20:59;9.30;99.90
35894;DHT22;21994;48.204;16.516;2023-05-10T03:23:42;9.30;99.90
35894;DHT22;21994;48.204;16.516;2023-05-10T03:26:10;9.30;99.90
35894;DHT22;21994;48.204;16.516;2023-05-10T03:28:43;9.20;99.90
35894;DHT22;21994;48.204;16.516;2023-05-10T03:31:10;9.20;99.90
35894;DHT22;21994;48.204;16.516;2023-05-10T03:33:48;9.20;99.90
35894;DHT22;21994;48.204;16.516;2023-05-10T03:36:15;9.20;99.90
35894;DHT22;21994;48.204;16.516;2023-05-10T03:38:41;9.20;99.90
35894;DHT22;21994;48.204;16.516;2023-05-10T03:41:07;9.20;99.90
35894;DHT22;21994;48.204;16.516;2023-05-10T03:43:33;9.10;99.90
35894;DHT22;21994;48.204;16.516;2023-05-10T03:46:04;9.10;99.90
35894;DHT22;21994;48.204;16.516;2023-05-10T03:48:32;9.10;99.90
35894;DHT22;21994;48.204;16.516;2023-05-10T03:50:58;9.10;99.90
35894;DHT22;21994;48.204;16.516;2023-05-10T03:53:24;9.10;99.90
35894;DHT22;21994;48.204;16.516;2023-05-10T03:55:50;9.10;99.90
35894;DHT22;21994;48.204;16.516;2023-05-10T03:58:16;9.10;99.90
35894;DHT22;21994;48.204;16.516;2023-05-10T04:00:42;9.10;99.90
35894;DHT22;21994;48.204;16.516;2023-05-10T04:03:12;9.10;99.90
35894;DHT22;21994;48.204;16.516;2023-05-10T04:05:38;9.20;99.90
35894;DHT22;21994;48.204;16.516;2023-05-10T04:08:05;9.20;99.90
35894;DHT22;21994;48.204;16.516;2023-05-10T04:10:31;9.30;99.90
35894;DHT22;21994;48.204;16.516;2023-05-10T04:12:57;9.20;99.90
35894;DHT22;21994;48.204;16.516;2023-05-10T04:15:23;9.20;99.90
35894;DHT22;21994;48.204;16.516;2023-05-10T04:17:49;9.30;99.90
35894;DHT22;21994;48.204;16.516;2023-05-10T04:20:16;9.30;99.90
35894;DHT22;21994;48.204;16.516;2023-05-10T04:22:42;9.30;99.90
35894;DHT22;21994;48.204;16.516;2023-05-10T04:25:08;9.30;99.90
35894;DHT22;21994;48.204;16.516;2023-05-10T04:27:34;9.40;99.90
35894;DHT22;21994;48.204;16.516;2023-05-10T04:30:01;9.40;99.90
35894;DHT22;21994;48.204;16.516;2023-05-10T04:32:27;9.40;99.90
35894;DHT22;21994;48.204;16.516;2023-05-10T04:34:53;9.40;99.90
35894;DHT22;21994;48.204;16.516;2023-05-10T04:37:19;9.50;99.90
35894;DHT22;21994;48.204;16.516;2023-05-10T04:39:46;9.60;99.90
35894;DHT22;21994;48.204;16.516;2023-05-10T04:42:12;9.60;99.90
35894;DHT22;21994;48.204;16.516;2023-05-10T04:44:40;9.60;99.90
35894;DHT22;21994;48.204;16.516;2023-05-10T04:47:06;9.70;99.90
35894;DHT22;21994;48.204;16.516;2023-05-10T04:49:32;9.80;99.90
35894;DHT22;21994;48.204;16.516;2023-05-10T04:51:58;9.80;99.90
35894;DHT22;21994;48.204;16.516;2023-05-10T04:54:24;9.90;99.90
35894;DHT22;21994;48.204;16.516;2023-05-10T04:56:50;10.00;99.90
35894;DHT22;21994;48.204;16.516;2023-05-10T04:59:16;10.10;99.90
35894;DHT22;21994;48.204;16.516;2023-05-10T05:01:42;10.20;99.90
35894;DHT22;21994;48.204;16.516;2023-05-10T05:04:08;10.20;99.90
35894;DHT22;21994;48.204;16.516;2023-05-10T05:06:34;10.30;99.90
35894;DHT22;21994;48.204;16.516;2023-05-10T05:09:00;10.40;99.90
35894;DHT22;21994;48.204;16.516;2023-05-10T05:11:26;10.50;99.90
35894;DHT22;21994;48.204;16.516;2023-05-10T05:13:52;10.60;99.90
35894;DHT22;21994;48.204;16.516;2023-05-10T05:16:18;10.80;99.90
35894;DHT22;21994;48.204;16.516;2023-05-10T05:18:44;10.80;99.90
35894;DHT22;21994;48.204;16.516;2023-05-10T05:21:14;11.00;99.90
35894;DHT22;21994;48.204;16.516;2023-05-10T05:23:44;11.10;99.90
35894;DHT22;21994;48.204;16.516;2023-05-10T05:26:10;11.30;99.90
35894;DHT22;21994;48.204;16.516;2023-05-10T05:28:37;11.40;99.90
35894;DHT22;21994;48.204;16.516;2023-05-10T05:31:07;11.50;99.90
35894;DHT22;21994;48.204;16.516;2023-05-10T05:33:33;11.60;99.90
35894;DHT22;21994;48.204;16.516;2023-05-10T05:36:03;11.60;99.90
35894;DHT22;21994;48.204;16.516;2023-05-10T05:38:30;11.80;99.90
35894;DHT22;21994;48.204;16.516;2023-05-10T05:40:57;11.90;99.90
35894;DHT22;21994;48.204;16.516;2023-05-10T05:43:23;12.00;99.90
35894;DHT22;21994;48.204;16.516;2023-05-10T05:45:49;12.10;99.90
35894;DHT22;21994;48.204;16.516;2023-05-10T05:48:15;12.20;99.90
35894;DHT22;21994;48.204;16.516;2023-05-10T05:50:41;12.30;99.90
35894;DHT22;21994;48.204;16.516;2023-05-10T05:53:07;12.40;99.90
35894;DHT22;21994;48.204;16.516;2023-05-10T05:55:34;12.40;99.90
35894;DHT22;21994;48.204;16.516;2023-05-10T05:58:00;12.50;99.90
35894;DHT22;21994;48.204;16.516;2023-05-10T06:00:25;12.60;99.90
35894;DHT22;21994;48.204;16.516;2023-05-10T06:02:51;12.70;99.90
35894;DHT22;21994;48.204;16.516;2023-05-10T06:05:17;12.80;99.90
35894;DHT22;21994;48.204;16.516;2023-05-10T06:07:43;12.80;99.90
35894;DHT22;21994;48.204;16.516;2023-05-10T06:10:19;12.90;99.90
35894;DHT22;21994;48.204;16.516;2023-05-10T06:12:45;13.00;99.90
35894;DHT22;21994;48.204;16.516;2023-05-10T06:15:11;13.10;99.90
35894;DHT22;21994;48.204;16.516;2023-05-10T06:17:37;13.20;99.90
35894;DHT22;21994;48.204;16.516;2023-05-10T06:20:04;13.20;99.90
35894;DHT22;21994;48.204;16.516;2023-05-10T06:22:31;13.30;99.90
35894;DHT22;21994;48.204;16.516;2023-05-10T06:24:57;13.30;99.90
35894;DHT22;21994;48.204;16.516;2023-05-10T06:27:23;13.40;99.90
35894;DHT22;21994;48.204;16.516;2023-05-10T06:29:49;13.40;99.90
35894;DHT22;21994;48.204;16.516;2023-05-10T06:32:15;13.50;99.90
35894;DHT22;21994;48.204;16.516;2023-05-10T06:34:41;13.50;99.90
35894;DHT22;21994;48.204;16.516;2023-05-10T06:37:08;13.60;99.90
35894;DHT22;21994;48.204;16.516;2023-05-10T06:39:34;13.70;99.90
35894;DHT22;21994;48.204;16.516;2023-05-10T06:42:00;13.80;99.90
35894;DHT22;21994;48.204;16.516;2023-05-10T06:44:27;13.90;99.90
35894;DHT22;21994;48.204;16.516;2023-05-10T06:46:52;14.00;99.90
35894;DHT22;21994;48.204;16.516;2023-05-10T06:49:20;14.00;99.90
35894;DHT22;21994;48.204;16.516;2023-05-10T06:51:46;14.10;99.90
35894;DHT22;21994;48.204;16.516;2023-05-10T06:54:12;14.20;99.90
35894;DHT22;21994;48.204;16.516;2023-05-10T06:56:38;14.40;99.90
35894;DHT22;21994;48.204;16.516;2023-05-10T06:59:04;14.70;99.90
35894;DHT22;21994;48.204;16.516;2023-05-10T07:01:30;14.80;99.90
35894;DHT22;21994;48.204;16.516;2023-05-10T07:03:59;14.80;99.90
35894;DHT22;21994;48.204;16.516;2023-05-10T07:06:24;15.00;99.90
35894;DHT22;21994;48.204;16.516;2023-05-10T07:08:50;15.30;99.90
35894;DHT22;21994;48.204;16.516;2023-05-10T07:11:16;15.50;99.90
35894;DHT22;21994;48.204;16.516;2023-05-10T07:13:42;15.80;99.90
35894;DHT22;21994;48.204;16.516;2023-05-10T07:16:10;15.90;99.90
35894;DHT22;21994;48.204;16.516;2023-05-10T07:18:36;16.00;99.90
35894;DHT22;21994;48.204;16.516;2023-05-10T07:21:02;16.20;99.90
35894;DHT22;21994;48.204;16.516;2023-05-10T07:23:28;16.50;99.90
35894;DHT22;21994;48.204;16.516;2023-05-10T07:25:55;16.70;99.90
35894;DHT22;21994;48.204;16.516;2023-05-10T07:28:23;16.60;99.90
35894;DHT22;21994;48.204;16.516;2023-05-10T07:30:52;16.50;99.90
35894;DHT22;21994;48.204;16.516;2023-05-10T07:33:18;16.50;99.90
35894;DHT22;21994;48.204;16.516;2023-05-10T07:35:44;16.60;99.90
35894;DHT22;21994;48.204;16.516;2023-05-10T07:38:09;16.90;99.90
35894;DHT22;21994;48.204;16.516;2023-05-10T07:40:39;17.10;99.90
35894;DHT22;21994;48.204;16.516;2023-05-10T07:43:05;17.20;99.90
35894;DHT22;21994;48.204;16.516;2023-05-10T07:45:32;17.20;99.70
35894;DHT22;21994;48.204;16.516;2023-05-10T07:47:58;17.30;99.50
35894;DHT22;21994;48.204;16.516;2023-05-10T07:50:24;17.40;99.10
35894;DHT22;21994;48.204;16.516;2023-05-10T07:52:50;17.30;98.90
35894;DHT22;21994;48.204;16.516;2023-05-10T07:55:18;17.60;99.60
35894;DHT22;21994;48.204;16.516;2023-05-10T07:57:45;17.70;98.50
35894;DHT22;21994;48.204;16.516;2023-05-10T08:00:12;18.00;98.60
35894;DHT22;21994;48.204;16.516;2023-05-10T08:02:39;18.40;98.20
35894;DHT22;21994;48.204;16.516;2023-05-10T08:05:05;18.30;97.50
35894;DHT22;21994;48.204;16.516;2023-05-10T08:07:31;18.40;96.60
35894;DHT22;21994;48.204;16.516;2023-05-10T08:09:57;18.40;97.10
35894;DHT22;21994;48.204;16.516;2023-05-10T08:12:23;18.80;97.80
35894;DHT22;21994;48.204;16.516;2023-05-10T08:14:49;18.80;95.90
35894;DHT22;21994;48.204;16.516;2023-05-10T08:17:15;18.90;96.70
35894;DHT22;21994;48.204;16.516;2023-05-10T08:19:41;19.10;96.40
35894;DHT22;21994;48.204;16.516;2023-05-10T08:22:07;19.20;95.80
35894;DHT22;21994;48.204;16.516;2023-05-10T08:24:33;19.10;96.30
35894;DHT22;21994;48.204;16.516;2023-05-10T08:27:04;18.80;95.90
35894;DHT22;21994;48.204;16.516;2023-05-10T08:29:31;19.10;97.40
35894;DHT22;21994;48.204;16.516;2023-05-10T08:31:57;19.60;95.50
35894;DHT22;21994;48.204;16.516;2023-05-10T08:34:22;19.80;94.90
35894;DHT22;21994;48.204;16.516;2023-05-10T08:36:48;19.70;94.30
35894;DHT22;21994;48.204;16.516;2023-05-10T08:39:14;19.50;94.30
35894;DHT22;21994;48.204;16.516;2023-05-10T08:41:44;19.40;94.20
35894;DHT22;21994;48.204;16.516;2023-05-10T08:44:10;19.20;94.00
35894;DHT22;21994;48.204;16.516;2023-05-10T08:46:37;19.80;95.20
35894;DHT22;21994;48.204;16.516;2023-05-10T08:49:13;20.20;94.50
35894;DHT22;21994;48.204;16.516;2023-05-10T08:51:49;20.40;92.20
35894;DHT22;21994;48.204;16.516;2023-05-10T08:54:17;20.40;92.70
35894;DHT22;21994;48.204;16.516;2023-05-10T08:56:44;20.60;92.50
35894;DHT22;21994;48.204;16.516;2023-05-10T08:59:10;21.00;92.80
35894;DHT22;21994;48.204;16.516;2023-05-10T09:01:37;20.80;92.50
35894;DHT22;21994;48.204;16.516;2023-05-10T09:04:03;20.80;91.60
35894;DHT22;21994;48.204;16.516;2023-05-10T09:06:29;20.60;91.90
35894;DHT22;21994;48.204;16.516;2023-05-10T09:08:55;20.50;93.20
35894;DHT22;21994;48.204;16.516;2023-05-10T09:11:22;20.80;92.20
35894;DHT22;21994;48.204;16.516;2023-05-10T09:13:50;20.60;91.90
35894;DHT22;21994;48.204;16.516;2023-05-10T09:16:17;20.30;91.70
35894;DHT22;21994;48.204;16.516;2023-05-10T09:18:42;20.30;92.20
35894;DHT22;21994;48.204;16.516;2023-05-10T09:21:09;21.00;92.30
35894;DHT22;21994;48.204;16.516;2023-05-10T09:23:36;21.80;91.10
35894;DHT22;21994;48.204;16.516;2023-05-10T09:26:06;21.70;90.70
35894;DHT22;21994;48.204;16.516;2023-05-10T09:28:33;21.30;91.60
35894;DHT22;21994;48.204;16.516;2023-05-10T09:31:00;21.50;90.60
35894;DHT22;21994;48.204;16.516;2023-05-10T09:33:26;21.90;90.20
35894;DHT22;21994;48.204;16.516;2023-05-10T09:35:52;21.40;90.60
35894;DHT22;21994;48.204;16.516;2023-05-10T09:38:18;21.50;90.80
35894;DHT22;21994;48.204;16.516;2023-05-10T09:40:52;21.20;91.40
35894;DHT22;21994;48.204;16.516;2023-05-10T09:43:20;20.50;90.70
35894;DHT22;21994;48.204;16.516;2023-05-10T09:45:48;20.90;91.90
35894;DHT22;21994;48.204;16.516;2023-05-10T09:48:16;21.40;90.00
35894;DHT22;21994;48.204;16.516;2023-05-10T09:50:42;21.00;90.10
35894;DHT22;21994;48.204;16.516;2023-05-10T09:53:08;20.50;90.20
35894;DHT22;21994;48.204;16.516;2023-05-10T09:55:41;20.90;90.50
35894;DHT22;21994;48.204;16.516;2023-05-10T09:58:15;21.50;90.40
35894;DHT22;21994;48.204;16.516;2023-05-10T10:00:45;22.10;89.30
35894;DHT22;21994;48.204;16.516;2023-05-10T10:03:22;22.80;88.40
35894;DHT22;21994;48.204;16.516;2023-05-10T10:05:49;23.20;83.80
35894;DHT22;21994;48.204;16.516;2023-05-10T10:08:16;22.60;83.50
35894;DHT22;21994;48.204;16.516;2023-05-10T10:10:43;22.70;88.60
35894;DHT22;21994;48.204;16.516;2023-05-10T10:13:12;22.60;84.60
35894;DHT22;21994;48.204;16.516;2023-05-10T10:15:38;22.80;84.90
35894;DHT22;21994;48.204;16.516;2023-05-10T10:18:05;23.10;87.60
35894;DHT22;21994;48.204;16.516;2023-05-10T10:20:31;23.30;82.80
35894;DHT22;21994;48.204;16.516;2023-05-10T10:22:57;23.20;83.30
35894;DHT22;21994;48.204;16.516;2023-05-10T10:25:23;22.80;85.40
35894;DHT22;21994;48.204;16.516;2023-05-10T10:30:42;22.20;86.10
35894;DHT22;21994;48.204;16.516;2023-05-10T10:35:45;23.90;86.30
35894;DHT22;21994;48.204;16.516;2023-05-10T10:38:13;23.40;84.30
35894;DHT22;21994;48.204;16.516;2023-05-10T10:40:39;23.60;83.50
35894;DHT22;21994;48.204;16.516;2023-05-10T10:43:27;24.10;82.80
35894;DHT22;21994;48.204;16.516;2023-05-10T10:46:14;24.30;81.10
35894;DHT22;21994;48.204;16.516;2023-05-10T10:48:49;24.30;83.50
35894;DHT22;21994;48.204;16.516;2023-05-10T10:51:17;23.70;79.20
35894;DHT22;21994;48.204;16.516;2023-05-10T10:53:43;23.40;83.20
35894;DHT22;21994;48.204;16.516;2023-05-10T10:56:11;23.90;81.00
35894;DHT22;21994;48.204;16.516;2023-05-10T10:58:39;24.10;82.60
35894;DHT22;21994;48.204;16.516;2023-05-10T11:01:10;24.90;81.40
35894;DHT22;21994;48.204;16.516;2023-05-10T11:03:38;24.90;80.10
35894;DHT22;21994;48.204;16.516;2023-05-10T11:06:04;24.90;78.00
35894;DHT22;21994;48.204;16.516;2023-05-10T11:08:31;24.00;78.40
35894;DHT22;21994;48.204;16.516;2023-05-10T11:13:42;23.20;81.60
35894;DHT22;21994;48.204;16.516;2023-05-10T11:16:23;23.40;81.30
35894;DHT22;21994;48.204;16.516;2023-05-10T11:19:04;23.30;84.30
35894;DHT22;21994;48.204;16.516;2023-05-10T11:21:33;23.00;79.90
35894;DHT22;21994;48.204;16.516;2023-05-10T11:24:01;22.90;83.70
35894;DHT22;21994;48.204;16.516;2023-05-10T11:26:35;22.80;83.20
35894;DHT22;21994;48.204;16.516;2023-05-10T11:29:01;22.70;82.40
35894;DHT22;21994;48.204;16.516;2023-05-10T11:31:28;22.20;82.90
35894;DHT22;21994;48.204;16.516;2023-05-10T11:33:56;21.90;83.70
35894;DHT22;21994;48.204;16.516;2023-05-10T11:36:28;21.70;83.90
35894;DHT22;21994;48.204;16.516;2023-05-10T11:38:55;21.80;84.40
35894;DHT22;21994;48.204;16.516;2023-05-10T11:41:23;21.60;86.00
35894;DHT22;21994;48.204;16.516;2023-05-10T11:43:51;21.50;82.50
35894;DHT22;21994;48.204;16.516;2023-05-10T11:46:19;21.60;85.40
35894;DHT22;21994;48.204;16.516;2023-05-10T11:48:48;21.60;84.00
35894;DHT22;21994;48.204;16.516;2023-05-10T11:51:19;21.80;87.00
35894;DHT22;21994;48.204;16.516;2023-05-10T11:53:46;21.30;83.20
35894;DHT22;21994;48.204;16.516;2023-05-10T11:56:11;20.90;84.80
35894;DHT22;21994;48.204;16.516;2023-05-10T11:58:39;20.90;85.20
35894;DHT22;21994;48.204;16.516;2023-05-10T12:01:06;20.70;85.30
35894;DHT22;21994;48.204;16.516;2023-05-10T12:03:33;20.80;85.10
35894;DHT22;21994;48.204;16.516;2023-05-10T12:06:00;21.10;85.10
35894;DHT22;21994;48.204;16.516;2023-05-10T12:08:29;21.30;83.00
35894;DHT22;21994;48.204;16.516;2023-05-10T12:11:06;21.30;83.40
35894;DHT22;21994;48.204;16.516;2023-05-10T12:13:40;21.50;86.80
35894;DHT22;21994;48.204;16.516;2023-05-10T12:16:25;21.90;84.80
35894;DHT22;21994;48.204;16.516;2023-05-10T12:18:55;22.20;81.50
35894;DHT22;21994;48.204;16.516;2023-05-10T12:21:22;21.90;81.80
35894;DHT22;21994;48.204;16.516;2023-05-10T12:23:50;21.80;84.30
35894;DHT22;21994;48.204;16.516;2023-05-10T12:26:23;21.80;82.00
35894;DHT22;21994;48.204;16.516;2023-05-10T12:28:52;21.80;82.40
35894;DHT22;21994;48.204;16.516;2023-05-10T12:31:19;22.00;85.10
35894;DHT22;21994;48.204;16.516;2023-05-10T12:33:45;22.30;85.20
35894;DHT22;21994;48.204;16.516;2023-05-10T12:36:13;22.30;82.00
35894;DHT22;21994;48.204;16.516;2023-05-10T12:38:42;22.40;83.10
35894;DHT22;21994;48.204;16.516;2023-05-10T12:41:13;22.50;82.30
35894;DHT22;21994;48.204;16.516;2023-05-10T12:43:40;22.50;83.60
35894;DHT22;21994;48.204;16.516;2023-05-10T12:46:07;22.60;83.10
35894;DHT22;21994;48.204;16.516;2023-05-10T12:48:37;22.40;82.20
35894;DHT22;21994;48.204;16.516;2023-05-10T12:51:05;22.50;84.70
35894;DHT22;21994;48.204;16.516;2023-05-10T12:53:35;22.70;82.40
35894;DHT22;21994;48.204;16.516;2023-05-10T12:56:02;22.70;84.40
35894;DHT22;21994;48.204;16.516;2023-05-10T12:58:27;22.50;82.10
35894;DHT22;21994;48.204;16.516;2023-05-10T13:00:53;22.10;82.20
35894;DHT22;21994;48.204;16.516;2023-05-10T13:03:22;21.90;81.30
35894;DHT22;21994;48.204;16.516;2023-05-10T13:05:48;21.50;82.90
35894;DHT22;21994;48.204;16.516;2023-05-10T13:08:14;21.50;83.30
35894;DHT22;21994;48.204;16.516;2023-05-10T13:10:40;21.70;85.00
35894;DHT22;21994;48.204;16.516;2023-05-10T13:13:06;21.90;84.90
35894;DHT22;21994;48.204;16.516;2023-05-10T13:15:34;22.20;82.10
35894;DHT22;21994;48.204;16.516;2023-05-10T13:18:00;22.00;82.20
35894;DHT22;21994;48.204;16.516;2023-05-10T13:20:26;22.10;80.60
35894;DHT22;21994;48.204;16.516;2023-05-10T13:22:52;22.00;81.80
35894;DHT22;21994;48.204;16.516;2023-05-10T13:25:18;22.10;82.00
35894;DHT22;21994;48.204;16.516;2023-05-10T13:27:45;22.40;83.80
35894;DHT22;21994;48.204;16.516;2023-05-10T13:30:11;22.50;82.90
35894;DHT22;21994;48.204;16.516;2023-05-10T13:32:37;22.30;80.00
35894;DHT22;21994;48.204;16.516;2023-05-10T13:35:04;22.20;79.70
35894;DHT22;21994;48.204;16.516;2023-05-10T13:37:31;22.20;80.50
35894;DHT22;21994;48.204;16.516;2023-05-10T13:40:01;22.30;82.20
35894;DHT22;21994;48.204;16.516;2023-05-10T13:42:27;22.30;80.70
35894;DHT22;21994;48.204;16.516;2023-05-10T13:44:53;22.30;80.80
35894;DHT22;21994;48.204;16.516;2023-05-10T13:47:19;22.40;78.50
35894;DHT22;21994;48.204;16.516;2023-05-10T13:49:47;22.40;78.60
35894;DHT22;21994;48.204;16.516;2023-05-10T13:52:13;22.50;79.50
35894;DHT22;21994;48.204;16.516;2023-05-10T13:54:39;22.70;77.60
35894;DHT22;21994;48.204;16.516;2023-05-10T13:57:05;22.70;75.00
35894;DHT22;21994;48.204;16.516;2023-05-10T13:59:32;22.60;77.40
35894;DHT22;21994;48.204;16.516;2023-05-10T14:01:58;23.00;78.20
35894;DHT22;21994;48.204;16.516;2023-05-10T14:04:28;23.00;78.50
35894;DHT22;21994;48.204;16.516;2023-05-10T14:06:54;23.00;77.70
35894;DHT22;21994;48.204;16.516;2023-05-10T14:09:20;22.80;76.10
35894;DHT22;21994;48.204;16.516;2023-05-10T14:11:46;22.60;76.40
35894;DHT22;21994;48.204;16.516;2023-05-10T14:14:15;22.40;77.40
35894;DHT22;21994;48.204;16.516;2023-05-10T14:16:43;22.20;78.10
35894;DHT22;21994;48.204;16.516;2023-05-10T14:19:10;21.80;76.90
35894;DHT22;21994;48.204;16.516;2023-05-10T14:21:36;21.40;78.10
35894;DHT22;21994;48.204;16.516;2023-05-10T14:24:02;21.30;83.00
35894;DHT22;21994;48.204;16.516;2023-05-10T14:26:28;21.60;77.20
35894;DHT22;21994;48.204;16.516;2023-05-10T14:28:54;21.60;79.40
35894;DHT22;21994;48.204;16.516;2023-05-10T14:31:20;21.70;80.40
35894;DHT22;21994;48.204;16.516;2023-05-10T14:33:49;21.70;80.00
35894;DHT22;21994;48.204;16.516;2023-05-10T14:36:15;21.90;79.40
35894;DHT22;21994;48.204;16.516;2023-05-10T14:38:41;22.40;76.80
35894;DHT22;21994;48.204;16.516;2023-05-10T14:41:07;22.20;75.80
35894;DHT22;21994;48.204;16.516;2023-05-10T14:43:33;21.90;75.40
35894;DHT22;21994;48.204;16.516;2023-05-10T14:45:59;21.50;76.60
35894;DHT22;21994;48.204;16.516;2023-05-10T14:48:25;21.50;79.10
35894;DHT22;21994;48.204;16.516;2023-05-10T14:50:51;21.40;77.90
35894;DHT22;21994;48.204;16.516;2023-05-10T14:53:18;21.50;80.50
35894;DHT22;21994;48.204;16.516;2023-05-10T14:55:44;22.00;80.00
35894;DHT22;21994;48.204;16.516;2023-05-10T14:58:09;22.10;76.70
35894;DHT22;21994;48.204;16.516;2023-05-10T15:00:35;21.80;77.30
35894;DHT22;21994;48.204;16.516;2023-05-10T15:03:01;21.40;78.80
35894;DHT22;21994;48.204;16.516;2023-05-10T15:05:27;21.10;78.20
35894;DHT22;21994;48.204;16.516;2023-05-10T15:07:53;21.10;80.10
35894;DHT22;21994;48.204;16.516;2023-05-10T15:10:19;21.20;78.70
35894;DHT22;21994;48.204;16.516;2023-05-10T15:12:45;21.20;80.20
35894;DHT22;21994;48.204;16.516;2023-05-10T15:15:11;21.40;79.30
35894;DHT22;21994;48.204;16.516;2023-05-10T15:17:36;21.80;80.70
35894;DHT22;21994;48.204;16.516;2023-05-10T15:20:03;21.80;78.90
35894;DHT22;21994;48.204;16.516;2023-05-10T15:22:29;21.80;77.90
35894;DHT22;21994;48.204;16.516;2023-05-10T15:24:58;21.80;77.90
35894;DHT22;21994;48.204;16.516;2023-05-10T15:27:25;21.30;78.10
35894;DHT22;21994;48.204;16.516;2023-05-10T15:29:51;21.20;79.40
35894;DHT22;21994;48.204;16.516;2023-05-10T15:32:17;21.50;80.50
35894;DHT22;21994;48.204;16.516;2023-05-10T15:34:43;21.60;79.40
35894;DHT22;21994;48.204;16.516;2023-05-10T15:37:09;21.50;78.20
35894;DHT22;21994;48.204;16.516;2023-05-10T15:39:35;21.20;78.00
35894;DHT22;21994;48.204;16.516;2023-05-10T15:42:01;20.80;78.20
35894;DHT22;21994;48.204;16.516;2023-05-10T15:44:28;20.40;80.30